Time;durP1;ratioP1;P1;durP2;ratioP2;P2;SDS_P1;SDS_P2;PMS_P1;PMS_P2;Temp;Humidity;BMP_temperature;BMP_pressure;BME280_temperature;BME280_humidity;BME280_pressure;Samples;Min_cycle;Max_cycle;Signal;HPM_P1;HPM_P2
2020/12/04 00:01:14;;;;;;;7.97;6.27;;;4.70;99.90;;;;;;5051914;28;20213;-64
2020/12/04 00:03:40;;;;;;;8.50;6.43;;;4.70;99.90;;;;;;5052423;28;20179;-64
2020/12/04 00:06:06;;;;;;;7.53;5.83;;;4.60;99.90;;;;;;5052140;28;20301;-64
2020/12/04 00:08:31;;;;;;;7.37;5.73;;;4.60;99.90;;;;;;5033855;28;20183;-64
2020/12/04 00:10:57;;;;;;;6.10;5.30;;;4.60;99.90;;;;;;5051579;28;20271;-64
2020/12/04 00:13:22;;;;;;;8.47;6.13;;;4.60;99.90;;;;;;5052188;28;20179;-64
2020/12/04 00:15:48;;;;;;;7.30;5.10;;;4.60;99.90;;;;;;5051536;28;20672;-64
2020/12/04 00:18:14;;;;;;;6.23;5.40;;;4.60;99.90;;;;;;5052045;28;20186;-64
2020/12/04 00:20:39;;;;;;;6.40;5.70;;;4.60;99.90;;;;;;5051035;28;20678;-64
2020/12/04 00:23:05;;;;;;;7.70;5.30;;;4.60;99.90;;;;;;5051749;28;20186;-64
2020/12/04 00:25:30;;;;;;;8.90;6.13;;;4.60;99.90;;;;;;5051637;28;20203;-64
2020/12/04 00:27:56;;;;;;;7.50;5.53;;;4.60;99.90;;;;;;5051656;28;20182;-64
2020/12/04 00:30:21;;;;;;;7.23;5.33;;;4.60;99.90;;;;;;5051451;28;20562;-64
2020/12/04 00:32:47;;;;;;;5.77;4.90;;;4.60;99.90;;;;;;5051798;28;20667;-64
2020/12/04 00:35:13;;;;;;;7.83;5.53;;;4.60;99.90;;;;;;5051481;28;20191;-64
2020/12/04 00:37:38;;;;;;;7.30;5.30;;;4.60;99.90;;;;;;5051680;28;20245;-64
2020/12/04 00:40:04;;;;;;;6.40;5.27;;;4.60;99.90;;;;;;5051490;28;20232;-64
2020/12/04 00:42:30;;;;;;;6.07;5.10;;;4.60;99.90;;;;;;5051106;28;20561;-64
2020/12/04 00:44:55;;;;;;;7.47;5.73;;;4.60;99.90;;;;;;5051826;28;20206;-64
2020/12/04 00:47:21;;;;;;;8.43;5.43;;;4.60;99.90;;;;;;5051373;28;20190;-64
2020/12/04 00:49:46;;;;;;;6.53;5.23;;;4.60;99.90;;;;;;5051238;28;20193;-64
2020/12/04 00:52:12;;;;;;;5.37;4.67;;;4.60;99.90;;;;;;5050445;28;20636;-64
2020/12/04 00:54:38;;;;;;;8.20;5.67;;;4.60;99.90;;;;;;5050950;28;20734;-64
2020/12/04 00:57:06;;;;;;;5.53;4.70;;;4.60;99.90;;;;;;5051397;28;20355;-64
2020/12/04 00:59:32;;;;;;;7.97;5.60;;;4.60;99.90;;;;;;5051366;28;20182;-64
2020/12/04 01:01:57;;;;;;;6.50;5.10;;;4.60;99.90;;;;;;5050828;28;20243;-64
2020/12/04 01:04:23;;;;;;;6.73;5.00;;;4.60;99.90;;;;;;5050901;28;20179;-64
2020/12/04 01:06:48;;;;;;;5.13;4.57;;;4.60;99.90;;;;;;5051374;28;20657;-64
2020/12/04 01:09:14;;;;;;;5.10;4.57;;;4.70;99.90;;;;;;5051335;28;20177;-64
2020/12/04 01:11:40;;;;;;;7.97;5.93;;;4.70;99.90;;;;;;5050707;28;20213;-64
2020/12/04 01:14:06;;;;;;;6.13;4.80;;;4.70;99.90;;;;;;5051453;28;20261;-64
2020/12/04 01:16:32;;;;;;;7.70;5.67;;;4.70;99.90;;;;;;5051240;28;20351;-64
2020/12/04 01:18:57;;;;;;;7.43;5.20;;;4.70;99.90;;;;;;5051032;28;20179;-64
2020/12/04 01:21:23;;;;;;;6.07;4.70;;;4.70;99.90;;;;;;5050818;28;20175;-64
2020/12/04 01:23:51;;;;;;;5.83;5.17;;;4.70;99.90;;;;;;5051164;28;20236;-64
2020/12/04 01:26:17;;;;;;;6.67;5.90;;;4.70;99.90;;;;;;5050863;28;20245;-64
2020/12/04 01:28:43;;;;;;;7.03;5.37;;;4.70;99.90;;;;;;5050798;28;20183;-64
2020/12/04 01:31:09;;;;;;;8.03;5.90;;;4.70;99.90;;;;;;5050809;28;20282;-64
2020/12/04 01:33:36;;;;;;;6.33;5.33;;;4.70;99.90;;;;;;5050893;28;20178;-64
2020/12/04 01:36:02;;;;;;;6.47;5.60;;;4.70;99.90;;;;;;5053405;28;20197;-64
2020/12/04 01:38:27;;;;;;;7.30;5.80;;;4.70;99.90;;;;;;5054642;28;20186;-64
2020/12/04 01:41:03;;;;;;;4.33;3.93;;;4.70;99.90;;;;;;5054696;28;20174;-64
2020/12/04 01:43:29;;;;;;;6.73;5.23;;;4.70;99.90;;;;;;5054549;28;20178;-64
2020/12/04 01:45:56;;;;;;;5.20;4.70;;;4.60;99.90;;;;;;5055108;28;20218;-64
2020/12/04 01:48:22;;;;;;;5.93;5.17;;;4.70;99.90;;;;;;5054771;28;20182;-64
2020/12/04 01:50:50;;;;;;;7.77;5.27;;;4.70;99.90;;;;;;5053955;28;20694;-64
2020/12/04 01:53:20;;;;;;;7.80;5.57;;;4.70;99.90;;;;;;5053769;28;20179;-64
2020/12/04 01:55:46;;;;;;;5.17;4.60;;;4.70;99.90;;;;;;5054531;28;20190;-64
2020/12/04 01:58:13;;;;;;;6.77;5.30;;;4.60;99.90;;;;;;5054541;28;20316;-64
2020/12/04 02:00:38;;;;;;;6.43;4.20;;;4.70;99.90;;;;;;5053865;28;20181;-64
2020/12/04 02:03:07;;;;;;;5.27;4.77;;;4.70;99.90;;;;;;5054584;28;20175;-64
2020/12/04 02:05:33;;;;;;;5.23;4.73;;;4.60;99.90;;;;;;5054233;28;20407;-64
2020/12/04 02:08:15;;;;;;;7.10;4.67;;;4.60;99.90;;;;;;5054674;28;20178;-64
2020/12/04 02:10:52;;;;;;;6.20;4.47;;;4.70;99.90;;;;;;5053497;28;20187;-64
2020/12/04 02:13:19;;;;;;;6.20;4.70;;;4.60;99.90;;;;;;5036375;28;20224;-64
2020/12/04 02:15:45;;;;;;;6.07;5.10;;;4.60;99.90;;;;;;5053902;28;20574;-64
2020/12/04 02:18:11;;;;;;;8.20;5.10;;;4.60;99.90;;;;;;5054257;28;20175;-64
2020/12/04 02:20:36;;;;;;;4.93;4.23;;;4.60;99.90;;;;;;5053436;28;20185;-64
2020/12/04 02:23:02;;;;;;;5.40;4.40;;;4.60;99.90;;;;;;5053978;28;20178;-64
2020/12/04 02:25:28;;;;;;;6.50;4.90;;;4.60;99.90;;;;;;5053620;28;20249;-64
2020/12/04 02:27:53;;;;;;;5.83;4.37;;;4.50;99.90;;;;;;5053863;28;20182;-64
2020/12/04 02:30:28;;;;;;;5.70;5.10;;;4.50;99.90;;;;;;5053791;28;20234;-64
2020/12/04 02:32:54;;;;;;;6.63;4.40;;;4.60;99.90;;;;;;5053812;28;20178;-64
2020/12/04 02:35:20;;;;;;;5.87;4.67;;;4.50;99.90;;;;;;5054068;28;20616;-64
2020/12/04 02:37:45;;;;;;;6.40;5.43;;;4.50;99.90;;;;;;5053609;28;20210;-64
2020/12/04 02:40:11;;;;;;;5.43;4.53;;;4.50;99.90;;;;;;5053878;28;20194;-64
2020/12/04 02:42:37;;;;;;;6.17;4.93;;;4.50;99.90;;;;;;5053290;28;20644;-64
2020/12/04 02:45:03;;;;;;;5.50;4.50;;;4.50;99.90;;;;;;5053915;28;20191;-64
2020/12/04 02:47:28;;;;;;;6.33;4.93;;;4.40;99.90;;;;;;5052008;28;20667;-64
2020/12/04 02:49:54;;;;;;;5.97;5.03;;;4.40;99.90;;;;;;5053276;28;20193;-64
2020/12/04 02:52:24;;;;;;;6.93;5.17;;;4.40;99.90;;;;;;5053320;28;20636;-64
2020/12/04 02:54:50;;;;;;;5.47;4.60;;;4.40;99.90;;;;;;5053538;28;20194;-64
2020/12/04 02:57:16;;;;;;;4.93;3.83;;;4.40;99.90;;;;;;5053317;28;20182;-64
2020/12/04 02:59:42;;;;;;;6.00;5.23;;;4.40;99.90;;;;;;5053510;28;20179;-64
2020/12/04 03:02:07;;;;;;;5.60;5.00;;;4.40;99.90;;;;;;5053095;28;20179;-64
2020/12/04 03:04:33;;;;;;;5.60;4.30;;;4.40;99.90;;;;;;5053180;28;20551;-64
2020/12/04 03:06:59;;;;;;;5.00;4.27;;;4.40;99.90;;;;;;5052957;28;20190;-64
2020/12/04 03:09:24;;;;;;;4.03;3.63;;;4.30;99.90;;;;;;5053457;28;20261;-64
2020/12/04 03:11:52;;;;;;;5.17;4.40;;;4.30;99.90;;;;;;5052812;28;20284;-64
2020/12/04 03:14:18;;;;;;;5.03;4.53;;;4.40;99.90;;;;;;5052939;28;20194;-64
2020/12/04 03:16:43;;;;;;;5.53;4.40;;;4.40;99.90;;;;;;5052581;28;20183;-64
2020/12/04 03:19:09;;;;;;;4.80;4.30;;;4.40;99.90;;;;;;5053069;28;20523;-64
2020/12/04 03:21:34;;;;;;;7.73;4.50;;;4.40;99.90;;;;;;5052323;28;20182;-64
2020/12/04 03:24:00;;;;;;;5.27;4.00;;;4.40;99.90;;;;;;5052890;28;20175;-64
2020/12/04 03:26:25;;;;;;;5.57;4.67;;;4.50;99.90;;;;;;5051461;28;20573;-64
2020/12/04 03:28:51;;;;;;;6.07;4.80;;;4.50;99.90;;;;;;5052823;28;20253;-64
2020/12/04 03:31:17;;;;;;;5.63;4.30;;;4.50;99.90;;;;;;5052627;28;20202;-64
2020/12/04 03:33:42;;;;;;;5.50;4.40;;;4.50;99.90;;;;;;5052801;28;20175;-64
2020/12/04 03:36:08;;;;;;;4.03;3.63;;;4.50;99.90;;;;;;5052803;28;20193;-64
2020/12/04 03:38:33;;;;;;;3.90;3.60;;;4.60;99.90;;;;;;5052512;28;20297;-64
2020/12/04 03:40:59;;;;;;;4.67;4.03;;;4.60;99.90;;;;;;5052365;28;20208;-64
2020/12/04 03:43:25;;;;;;;4.50;4.10;;;4.70;99.90;;;;;;5052552;28;20179;-64
2020/12/04 03:45:50;;;;;;;4.53;4.10;;;4.70;99.90;;;;;;5052685;28;20229;-64
2020/12/04 03:48:16;;;;;;;4.20;3.80;;;4.70;99.90;;;;;;5052101;28;20218;-64
2020/12/04 03:50:41;;;;;;;4.17;3.73;;;4.70;99.90;;;;;;5051610;28;20202;-64
2020/12/04 03:53:07;;;;;;;4.63;4.17;;;4.70;99.90;;;;;;5052578;28;20182;-64
2020/12/04 03:55:33;;;;;;;5.63;3.57;;;4.80;99.90;;;;;;5052077;28;20202;-64
2020/12/04 03:57:58;;;;;;;3.90;3.50;;;4.80;99.90;;;;;;5051564;28;20261;-64
2020/12/04 04:00:24;;;;;;;5.40;3.90;;;4.90;99.90;;;;;;5051915;28;20224;-64
2020/12/04 04:02:50;;;;;;;3.97;3.67;;;4.90;99.90;;;;;;5052236;28;20616;-64
2020/12/04 04:05:16;;;;;;;3.53;2.97;;;4.90;99.90;;;;;;5052141;28;20199;-64
2020/12/04 04:07:41;;;;;;;4.10;3.73;;;5.00;99.90;;;;;;5051490;28;20261;-64
2020/12/04 04:10:08;;;;;;;3.83;3.30;;;5.00;99.90;;;;;;5051716;28;20253;-64
2020/12/04 04:12:33;;;;;;;3.90;3.27;;;5.00;99.90;;;;;;5051844;28;20175;-64
2020/12/04 04:14:59;;;;;;;4.40;3.83;;;5.00;99.90;;;;;;5051999;28;20198;-64
2020/12/04 04:17:26;;;;;;;4.50;4.10;;;5.00;99.90;;;;;;5051390;28;20592;-64
2020/12/04 04:19:51;;;;;;;3.57;3.27;;;5.10;99.90;;;;;;5051847;28;20534;-64
2020/12/04 04:22:17;;;;;;;5.10;4.17;;;5.10;99.90;;;;;;5051733;28;20201;-64
2020/12/04 04:24:43;;;;;;;3.50;3.20;;;5.10;99.90;;;;;;5051552;28;20277;-64
2020/12/04 04:27:09;;;;;;;3.53;3.23;;;5.10;99.90;;;;;;5051743;28;20266;-64
2020/12/04 04:29:35;;;;;;;4.00;3.60;;;5.10;99.90;;;;;;5051924;28;20220;-64
2020/12/04 04:32:00;;;;;;;5.37;4.73;;;5.10;99.90;;;;;;5051376;28;20300;-64
2020/12/04 04:34:26;;;;;;;3.43;3.13;;;5.10;99.90;;;;;;5051680;28;20191;-64
2020/12/04 04:36:52;;;;;;;3.63;3.10;;;5.20;99.90;;;;;;5051342;28;20179;-64
2020/12/04 04:39:17;;;;;;;3.33;3.03;;;5.20;99.90;;;;;;5051592;28;20175;-64
2020/12/04 04:41:43;;;;;;;3.63;3.30;;;5.20;99.90;;;;;;5051068;28;20179;-64
2020/12/04 04:44:12;;;;;;;3.60;3.30;;;5.20;99.90;;;;;;5051581;28;20542;-64
2020/12/04 04:49:13;;;;;;;3.37;3.07;;;5.20;99.90;;;;;;5030365;28;20594;-66
2020/12/04 04:51:41;;;;;;;3.10;2.83;;;5.20;99.90;;;;;;5031350;28;20234;-66
2020/12/04 04:54:09;;;;;;;4.57;3.80;;;5.20;99.90;;;;;;5030096;28;20175;-65
2020/12/04 04:56:34;;;;;;;3.57;3.27;;;5.20;99.90;;;;;;5031583;28;20210;-64
2020/12/04 04:59:00;;;;;;;5.80;4.33;;;5.20;99.90;;;;;;5031538;28;20218;-64
2020/12/04 05:01:26;;;;;;;4.00;3.67;;;5.20;99.90;;;;;;5029816;28;20184;-63
2020/12/04 05:03:59;;;;;;;4.23;3.20;;;5.20;99.90;;;;;;5031314;28;20175;-63
2020/12/04 05:06:32;;;;;;;5.20;4.37;;;5.20;99.90;;;;;;5031319;28;20175;-65
2020/12/04 05:08:57;;;;;;;3.60;3.30;;;5.20;99.90;;;;;;5031736;28;20609;-65
2020/12/04 05:11:23;;;;;;;3.93;3.40;;;5.20;99.90;;;;;;5034606;28;20290;-65
2020/12/04 05:13:49;;;;;;;4.77;3.47;;;5.20;99.90;;;;;;5035236;28;20207;-65
2020/12/04 05:16:44;;;;;;;3.90;3.50;;;5.20;99.90;;;;;;5035587;28;20695;-65
2020/12/04 05:19:11;;;;;;;7.90;5.07;;;5.20;99.90;;;;;;4999272;28;20239;-66
2020/12/04 05:21:38;;;;;;;5.40;4.10;;;5.20;99.90;;;;;;5022749;28;20322;-65
2020/12/04 05:24:04;;;;;;;5.40;3.80;;;5.20;99.90;;;;;;5036957;28;20203;-65
2020/12/04 05:26:35;;;;;;;3.27;2.97;;;5.20;99.90;;;;;;5035881;28;20222;-66
2020/12/04 05:29:03;;;;;;;4.03;3.60;;;5.20;99.90;;;;;;5035123;28;20279;-66
2020/12/04 05:31:31;;;;;;;3.17;2.83;;;5.30;99.90;;;;;;5035968;28;20207;-65
2020/12/04 05:33:57;;;;;;;4.27;3.67;;;5.30;99.90;;;;;;5036931;28;20595;-66
2020/12/04 05:36:24;;;;;;;3.77;3.40;;;5.30;99.90;;;;;;5037150;28;20172;-66
2020/12/04 05:38:52;;;;;;;3.67;3.13;;;5.30;99.90;;;;;;5037362;28;20167;-65
2020/12/04 05:41:17;;;;;;;4.27;3.53;;;5.30;99.90;;;;;;5034674;28;20585;-64
2020/12/04 05:43:43;;;;;;;4.87;3.40;;;5.30;99.90;;;;;;5035464;28;20183;-66
2020/12/04 05:46:24;;;;;;;3.33;3.03;;;5.30;99.90;;;;;;5036614;28;20178;-66
2020/12/04 05:48:59;;;;;;;4.97;3.90;;;5.40;99.90;;;;;;5036267;28;20280;-66
2020/12/04 05:51:30;;;;;;;4.10;3.70;;;5.40;99.90;;;;;;5016682;28;20204;-66
2020/12/04 05:53:56;;;;;;;4.30;3.90;;;5.40;99.90;;;;;;5028776;28;20589;-65
2020/12/04 05:56:23;;;;;;;5.40;3.60;;;5.40;99.90;;;;;;5037048;28;20168;-65
2020/12/04 05:58:52;;;;;;;3.30;3.00;;;5.50;99.90;;;;;;5037170;28;20211;-64
2020/12/04 06:01:20;;;;;;;4.40;3.60;;;5.50;99.90;;;;;;5036097;28;20708;-64
2020/12/04 06:03:54;;;;;;;4.10;3.70;;;5.50;99.90;;;;;;5035998;28;20176;-65
2020/12/04 06:06:25;;;;;;;4.83;3.33;;;5.50;99.90;;;;;;5035836;28;20179;-66
2020/12/04 06:09:06;;;;;;;3.70;3.40;;;5.50;99.90;;;;;;5035673;28;20532;-67
2020/12/04 06:11:43;;;;;;;4.20;3.00;;;5.50;99.90;;;;;;5036331;28;20576;-66
2020/12/04 06:14:19;;;;;;;3.20;2.90;;;5.50;99.90;;;;;;5036768;28;20183;-66
2020/12/04 06:17:00;;;;;;;3.07;2.87;;;5.40;99.90;;;;;;5036011;28;20194;-67
2020/12/04 06:19:33;;;;;;;3.37;3.07;;;5.40;99.90;;;;;;5016945;28;20544;-66
2020/12/04 06:22:06;;;;;;;3.40;3.10;;;5.50;99.90;;;;;;5029022;28;20317;-66
2020/12/04 06:24:33;;;;;;;3.53;3.00;;;5.50;99.90;;;;;;5036926;28;20183;-67
2020/12/04 06:26:58;;;;;;;3.30;3.00;;;5.60;99.90;;;;;;5036572;28;20294;-66
2020/12/04 06:29:24;;;;;;;2.90;2.63;;;5.60;99.90;;;;;;5037002;28;20253;-68
2020/12/04 06:31:49;;;;;;;4.63;3.13;;;5.70;99.90;;;;;;5034582;28;20214;-67
2020/12/04 06:34:20;;;;;;;3.93;3.07;;;5.70;99.90;;;;;;5034081;28;20219;-67
2020/12/04 06:36:48;;;;;;;2.90;2.67;;;5.70;99.90;;;;;;5034462;28;20200;-68
2020/12/04 06:39:31;;;;;;;3.33;3.03;;;5.70;99.90;;;;;;5034673;28;20176;-66
2020/12/04 06:41:58;;;;;;;3.50;2.83;;;5.70;99.90;;;;;;5033712;28;20180;-68
2020/12/04 06:44:27;;;;;;;2.80;2.60;;;5.70;99.90;;;;;;5034042;28;20280;-68
2020/12/04 06:46:56;;;;;;;3.27;2.97;;;5.70;99.90;;;;;;5034102;28;20250;-67
2020/12/04 06:49:23;;;;;;;3.20;2.90;;;5.70;99.90;;;;;;5034303;28;20229;-67
2020/12/04 06:52:16;;;;;;;4.93;3.37;;;5.80;99.90;;;;;;5032552;28;20207;-62
2020/12/04 06:54:47;;;;;;;4.00;3.10;;;5.80;99.90;;;;;;5032157;28;20195;-65
2020/12/04 06:57:16;;;;;;;3.43;3.13;;;5.80;99.90;;;;;;5033217;28;20282;-64
2020/12/04 06:59:42;;;;;;;3.43;3.07;;;5.90;99.90;;;;;;5034292;28;20176;-66
2020/12/04 07:02:10;;;;;;;3.83;3.00;;;5.90;99.90;;;;;;5033553;28;20183;-65
2020/12/04 07:04:47;;;;;;;3.87;2.80;;;6.00;99.90;;;;;;5034931;28;20198;-67
2020/12/04 07:07:17;;;;;;;4.37;2.60;;;6.00;99.90;;;;;;5034650;28;20199;-67
2020/12/04 07:09:52;;;;;;;2.70;2.50;;;6.00;99.90;;;;;;5033447;28;20179;-64
2020/12/04 07:12:20;;;;;;;2.60;2.37;;;6.00;99.90;;;;;;5033707;28;20198;-62
2020/12/04 07:14:49;;;;;;;14.33;5.87;;;6.00;99.90;;;;;;5032386;28;20176;-64
2020/12/04 07:17:16;;;;;;;9.87;5.10;;;6.00;99.90;;;;;;5032602;28;20245;-64
2020/12/04 07:19:47;;;;;;;4.27;3.27;;;5.90;99.90;;;;;;5032982;28;20168;-63
2020/12/04 07:22:17;;;;;;;3.83;3.40;;;6.00;99.90;;;;;;5032682;28;20622;-64
2020/12/04 07:24:44;;;;;;;3.07;2.77;;;6.10;99.90;;;;;;5033006;28;20206;-64
2020/12/04 07:27:13;;;;;;;3.27;2.90;;;6.10;99.90;;;;;;5032690;28;20809;-64
2020/12/04 07:29:40;;;;;;;3.70;2.83;;;6.10;99.90;;;;;;5035587;28;20179;-64
2020/12/04 07:32:06;;;;;;;2.57;2.37;;;6.20;99.90;;;;;;5032363;28;20258;-64
2020/12/04 07:34:36;;;;;;;3.27;2.70;;;6.20;99.90;;;;;;5031814;28;20174;-64
2020/12/04 07:37:02;;;;;;;2.63;2.33;;;6.20;99.90;;;;;;5032840;28;20240;-64
2020/12/04 07:39:29;;;;;;;2.50;2.30;;;6.30;99.90;;;;;;5031483;28;20259;-64
2020/12/04 07:41:56;;;;;;;2.77;2.50;;;6.30;99.90;;;;;;5031614;28;20186;-64
2020/12/04 07:44:39;;;;;;;2.30;2.10;;;6.30;99.90;;;;;;5033013;28;20225;-64
2020/12/04 07:47:07;;;;;;;5.20;2.50;;;6.40;99.90;;;;;;5032547;28;20281;-63
2020/12/04 07:49:35;;;;;;;2.17;2.00;;;6.40;99.90;;;;;;5032460;28;20172;-64
2020/12/04 07:52:09;;;;;;;3.60;2.20;;;6.50;99.90;;;;;;5032006;28;20215;-64
2020/12/04 07:54:35;;;;;;;2.60;2.20;;;6.40;99.90;;;;;;5032481;28;20164;-64
2020/12/04 07:57:01;;;;;;;2.63;2.40;;;6.40;99.90;;;;;;5032331;28;20565;-63
2020/12/04 07:59:32;;;;;;;2.63;2.10;;;6.50;99.90;;;;;;5032947;28;20584;-65
2020/12/04 08:02:03;;;;;;;3.13;2.87;;;6.50;99.90;;;;;;5032127;28;20187;-64
2020/12/04 08:04:30;;;;;;;3.00;2.07;;;6.60;99.90;;;;;;5032271;28;20171;-65
2020/12/04 08:07:10;;;;;;;2.63;2.20;;;6.70;99.90;;;;;;5032134;28;20198;-65
2020/12/04 08:09:38;;;;;;;2.37;2.00;;;6.70;99.90;;;;;;5032081;28;20163;-64
2020/12/04 08:12:09;;;;;;;2.67;2.47;;;6.70;99.90;;;;;;5031871;28;20806;-65
2020/12/04 08:14:36;;;;;;;2.60;2.33;;;6.60;99.90;;;;;;5030744;28;20174;-64
2020/12/04 08:17:05;;;;;;;2.23;1.97;;;6.60;99.90;;;;;;5030691;28;20282;-65
2020/12/04 08:19:32;;;;;;;2.63;2.10;;;6.60;99.90;;;;;;5031576;28;20186;-65
2020/12/04 08:22:07;;;;;;;2.47;2.20;;;6.60;99.90;;;;;;5031535;28;20176;-64
2020/12/04 08:25:03;;;;;;;3.07;2.40;;;6.50;99.90;;;;;;5038917;28;20178;-65
2020/12/04 08:27:31;;;;;;;4.60;3.57;;;6.60;99.90;;;;;;5051470;28;20195;-65
2020/12/04 08:30:15;;;;;;;2.80;2.37;;;6.60;99.90;;;;;;5035229;28;20195;-64
2020/12/04 08:32:43;;;;;;;2.30;2.10;;;6.70;99.90;;;;;;5031832;28;20199;-64
2020/12/04 08:35:16;;;;;;;2.40;2.20;;;6.80;99.90;;;;;;5030905;28;20190;-65
2020/12/04 08:37:43;;;;;;;2.07;1.97;;;6.80;99.90;;;;;;5031534;28;20298;-64
2020/12/04 08:40:23;;;;;;;4.93;2.10;;;6.80;99.90;;;;;;5031532;28;20176;-66
2020/12/04 08:42:50;;;;;;;5.43;2.10;;;6.80;99.90;;;;;;5031578;28;20179;-66
2020/12/04 08:45:16;;;;;;;2.20;1.93;;;6.90;99.90;;;;;;5030853;28;20268;-66
2020/12/04 08:47:43;;;;;;;2.30;2.10;;;7.00;99.90;;;;;;5031347;28;20265;-66
2020/12/04 08:50:18;;;;;;;2.30;2.13;;;7.10;99.90;;;;;;5031132;28;20180;-66
2020/12/04 08:52:47;;;;;;;1.80;1.70;;;7.10;99.90;;;;;;5031539;28;20175;-65
2020/12/04 08:55:24;;;;;;;4.17;1.93;;;7.10;99.90;;;;;;5030495;28;20183;-67
2020/12/04 08:57:52;;;;;;;3.00;2.20;;;7.20;99.90;;;;;;5031873;28;20198;-66
2020/12/04 09:00:21;;;;;;;5.70;1.73;;;7.30;99.90;;;;;;5031022;28;20179;-66
2020/12/04 09:02:47;;;;;;;2.17;1.97;;;7.30;99.90;;;;;;5031520;28;20183;-65
2020/12/04 09:05:15;;;;;;;1.93;1.77;;;7.30;99.90;;;;;;5031269;28;20261;-66
2020/12/04 09:07:41;;;;;;;2.40;2.20;;;7.30;99.90;;;;;;5031724;28;20557;-66
2020/12/04 09:10:09;;;;;;;1.80;1.70;;;7.50;99.90;;;;;;5031290;28;20218;-65
2020/12/04 09:12:35;;;;;;;1.50;1.40;;;7.60;99.90;;;;;;5030588;28;20191;-64
2020/12/04 09:15:01;;;;;;;2.03;1.83;;;7.70;99.90;;;;;;5031788;28;20188;-65
2020/12/04 09:17:27;;;;;;;1.80;1.70;;;7.70;99.90;;;;;;5031858;28;20223;-67
2020/12/04 09:19:53;;;;;;;2.00;1.90;;;7.70;99.90;;;;;;5031081;28;20218;-65
2020/12/04 09:22:19;;;;;;;1.73;1.63;;;7.80;99.90;;;;;;5031242;28;20182;-68
2020/12/04 09:24:45;;;;;;;1.73;1.63;;;8.00;99.90;;;;;;5031830;28;20184;-64
2020/12/04 09:27:11;;;;;;;1.73;1.63;;;8.20;99.90;;;;;;5031124;28;20214;-67
2020/12/04 09:29:37;;;;;;;1.60;1.50;;;8.40;99.90;;;;;;5031281;28;20183;-66
2020/12/04 09:32:14;;;;;;;2.17;1.60;;;8.60;99.90;;;;;;5029642;28;20214;-66
2020/12/04 09:34:42;;;;;;;4.37;1.93;;;8.90;99.90;;;;;;5010626;28;20653;-62
2020/12/04 09:37:14;;;;;;;2.83;1.63;;;9.30;99.90;;;;;;5011597;28;20192;-66
2020/12/04 09:39:43;;;;;;;2.80;1.70;;;9.50;99.90;;;;;;5011319;28;20193;-64
2020/12/04 09:42:09;;;;;;;1.30;1.30;;;9.80;99.90;;;;;;5009716;28;20645;-64
2020/12/04 09:44:35;;;;;;;1.70;1.60;;;10.00;99.90;;;;;;5030786;28;20258;-64
2020/12/04 09:47:01;;;;;;;1.90;1.80;;;9.80;99.90;;;;;;5030826;28;20294;-64
2020/12/04 09:49:27;;;;;;;1.90;1.80;;;9.40;99.90;;;;;;5030778;28;20183;-64
2020/12/04 09:51:57;;;;;;;2.50;1.90;;;9.10;99.90;;;;;;5030658;28;20199;-65
2020/12/04 09:54:24;;;;;;;1.80;1.70;;;8.90;99.90;;;;;;5030857;28;20174;-64
2020/12/04 09:56:54;;;;;;;1.57;1.47;;;8.60;99.90;;;;;;5032819;28;20191;-66
2020/12/04 09:59:21;;;;;;;2.37;1.77;;;8.50;99.90;;;;;;5035125;28;20203;-66
2020/12/04 10:01:48;;;;;;;2.30;1.63;;;8.30;99.90;;;;;;5034765;28;20176;-65
2020/12/04 10:04:14;;;;;;;1.80;1.70;;;8.30;99.90;;;;;;5035015;28;20652;-66
2020/12/04 10:06:40;;;;;;;1.80;1.70;;;8.20;99.90;;;;;;5034745;28;20195;-66
2020/12/04 10:09:05;;;;;;;3.27;1.80;;;8.20;99.90;;;;;;5034868;28;20190;-66
2020/12/04 10:11:31;;;;;;;3.17;2.23;;;8.20;99.90;;;;;;5034242;28;20260;-65
2020/12/04 10:13:56;;;;;;;3.90;1.80;;;8.20;99.90;;;;;;5034830;28;20179;-66
2020/12/04 10:16:22;;;;;;;1.70;1.60;;;8.30;99.90;;;;;;5033680;28;20492;-65
2020/12/04 10:18:48;;;;;;;3.03;1.77;;;8.50;99.90;;;;;;5034219;28;20168;-64
2020/12/04 10:21:13;;;;;;;2.20;1.67;;;8.70;99.90;;;;;;5034232;28;20270;-65
2020/12/04 10:23:39;;;;;;;2.03;1.60;;;8.90;99.90;;;;;;5034632;28;20171;-66
2020/12/04 10:26:04;;;;;;;2.37;1.50;;;9.10;99.90;;;;;;5034085;28;20179;-65
2020/12/04 10:28:32;;;;;;;1.50;1.40;;;9.60;99.90;;;;;;5034414;28;20247;-65
2020/12/04 10:30:59;;;;;;;1.80;1.70;;;10.10;99.90;;;;;;5033615;28;20543;-65
2020/12/04 10:33:25;;;;;;;1.30;1.20;;;10.40;99.90;;;;;;5034869;28;20179;-65
2020/12/04 10:35:50;;;;;;;1.50;1.40;;;10.20;99.90;;;;;;5034253;28;20579;-65
2020/12/04 10:38:16;;;;;;;1.50;1.40;;;10.00;99.90;;;;;;5034189;28;20203;-65
2020/12/04 10:40:42;;;;;;;2.00;1.60;;;10.10;99.90;;;;;;5033800;28;20605;-64
2020/12/04 10:43:07;;;;;;;1.60;1.50;;;10.40;99.90;;;;;;5033886;28;20211;-67
2020/12/04 10:45:33;;;;;;;1.60;1.50;;;10.60;99.90;;;;;;5033963;28;20178;-65
2020/12/04 10:47:58;;;;;;;2.33;1.60;;;10.70;99.90;;;;;;5033898;28;20704;-64
2020/12/04 10:50:24;;;;;;;2.13;1.50;;;10.80;99.90;;;;;;5033398;28;20272;-65
2020/12/04 10:52:50;;;;;;;2.20;1.50;;;10.80;99.90;;;;;;5033290;28;20179;-65
2020/12/04 10:55:15;;;;;;;1.73;1.63;;;10.80;99.90;;;;;;5033942;28;20500;-65
2020/12/04 10:57:41;;;;;;;2.30;1.50;;;10.70;99.90;;;;;;5032980;28;20196;-64
2020/12/04 11:00:07;;;;;;;4.87;1.33;;;10.50;99.90;;;;;;5033367;28;20172;-63
2020/12/04 11:02:35;;;;;;;1.83;1.40;;;10.20;99.90;;;;;;5032849;28;20545;-64
2020/12/04 11:07:46;;;;;;;4.00;1.60;;;9.60;99.90;;;;;;5031934;28;20252;-64
2020/12/04 11:10:12;;;;;;;2.50;1.40;;;9.50;99.90;;;;;;5032895;28;20229;-65
2020/12/04 11:12:37;;;;;;;1.53;1.43;;;9.40;99.90;;;;;;5034775;28;20171;-65
2020/12/04 11:15:03;;;;;;;1.10;1.10;;;9.40;99.90;;;;;;5032948;28;20251;-65
2020/12/04 11:17:29;;;;;;;1.47;1.20;;;9.30;99.90;;;;;;5033461;28;20195;-64
2020/12/04 11:19:55;;;;;;;1.23;1.13;;;9.20;99.90;;;;;;5032024;28;20592;-65
2020/12/04 11:22:20;;;;;;;2.27;1.63;;;9.10;99.90;;;;;;5033096;28;20554;-64
2020/12/04 11:24:46;;;;;;;3.57;1.97;;;9.00;99.90;;;;;;5032729;28;20541;-64
2020/12/04 11:27:14;;;;;;;3.33;2.00;;;8.90;99.90;;;;;;5032934;28;20632;-65
2020/12/04 11:29:40;;;;;;;1.57;1.43;;;8.80;99.90;;;;;;5032722;28;20651;-65
2020/12/04 11:32:06;;;;;;;1.50;1.40;;;8.80;99.90;;;;;;5032760;28;20203;-64
2020/12/04 11:34:32;;;;;;;1.63;1.53;;;8.90;99.90;;;;;;5032746;28;20168;-64
2020/12/04 11:36:57;;;;;;;1.50;1.40;;;9.00;99.90;;;;;;5032537;28;20192;-65
2020/12/04 11:39:23;;;;;;;1.57;1.47;;;9.00;99.90;;;;;;5032859;28;20704;-64
2020/12/04 11:41:51;;;;;;;1.57;1.33;;;9.10;99.90;;;;;;5032345;28;20190;-65
2020/12/04 11:44:16;;;;;;;1.37;1.27;;;9.30;99.90;;;;;;5032875;28;20170;-64
2020/12/04 11:46:42;;;;;;;1.70;1.60;;;9.40;99.90;;;;;;5032319;28;20557;-64
2020/12/04 11:49:08;;;;;;;2.43;1.50;;;9.50;99.90;;;;;;5032436;28;20597;-64
2020/12/04 11:51:33;;;;;;;1.40;1.30;;;9.70;99.90;;;;;;5032443;28;20693;-65
2020/12/04 11:53:59;;;;;;;3.47;1.33;;;9.80;99.90;;;;;;5032702;28;20637;-63
2020/12/04 11:56:25;;;;;;;1.30;1.20;;;9.70;99.90;;;;;;5032421;28;20172;-64
2020/12/04 11:58:50;;;;;;;2.17;1.70;;;9.70;99.90;;;;;;5031872;28;20384;-64
2020/12/04 12:01:16;;;;;;;2.63;1.97;;;9.60;99.90;;;;;;5032006;28;20174;-64
2020/12/04 12:03:42;;;;;;;4.77;1.47;;;9.60;99.90;;;;;;5032331;28;20175;-64
2020/12/04 12:06:08;;;;;;;1.40;1.30;;;9.50;99.90;;;;;;5032302;28;20176;-63
2020/12/04 12:08:33;;;;;;;1.60;1.50;;;9.40;99.90;;;;;;5032134;28;20208;-64
2020/12/04 12:10:59;;;;;;;1.43;1.30;;;9.30;99.90;;;;;;5031502;28;20199;-64
2020/12/04 12:13:24;;;;;;;2.13;1.53;;;9.30;99.90;;;;;;5032358;28;20172;-65
2020/12/04 12:15:50;;;;;;;2.40;1.73;;;9.40;99.90;;;;;;5031957;28;20171;-65
2020/12/04 12:18:16;;;;;;;1.97;1.60;;;9.50;99.90;;;;;;5032071;28;20191;-64
2020/12/04 12:20:41;;;;;;;2.50;1.50;;;9.70;99.90;;;;;;5030501;28;20282;-64
2020/12/04 12:23:07;;;;;;;1.67;1.57;;;10.00;99.90;;;;;;5031808;28;20194;-65
2020/12/04 12:25:32;;;;;;;1.70;1.40;;;10.10;99.90;;;;;;5031677;28;20698;-65
2020/12/04 12:27:58;;;;;;;2.07;1.50;;;10.00;99.90;;;;;;5031891;28;20539;-63
2020/12/04 12:30:24;;;;;;;2.10;1.60;;;9.90;99.90;;;;;;5031533;28;20175;-64
2020/12/04 12:32:50;;;;;;;1.73;1.43;;;9.80;99.90;;;;;;5030870;28;20180;-64
2020/12/04 12:35:18;;;;;;;1.67;1.43;;;9.70;99.90;;;;;;5030669;28;20179;-64
2020/12/04 12:37:44;;;;;;;2.07;1.80;;;9.60;99.90;;;;;;5029990;28;20234;-64
2020/12/04 12:40:10;;;;;;;2.93;1.70;;;9.40;99.90;;;;;;5031499;28;20211;-63
2020/12/04 12:42:37;;;;;;;5.80;1.97;;;9.30;99.90;;;;;;5031255;28;20230;-64
2020/12/04 12:45:08;;;;;;;2.33;1.93;;;9.20;99.90;;;;;;5031653;28;20175;-64
2020/12/04 12:47:34;;;;;;;1.93;1.60;;;9.20;99.90;;;;;;5031069;28;20207;-64
2020/12/04 12:50:00;;;;;;;2.33;1.70;;;9.10;99.90;;;;;;5031305;28;20172;-64
2020/12/04 12:52:25;;;;;;;2.37;1.90;;;9.10;99.90;;;;;;5029964;28;20581;-64
2020/12/04 12:54:51;;;;;;;1.80;1.70;;;9.00;99.90;;;;;;5031342;28;20583;-65
2020/12/04 12:57:17;;;;;;;2.53;1.63;;;9.00;99.90;;;;;;5030328;28;20227;-64
2020/12/04 12:59:42;;;;;;;3.87;1.57;;;8.90;99.90;;;;;;5031282;28;20171;-65
2020/12/04 13:02:08;;;;;;;2.50;2.00;;;8.90;99.90;;;;;;5031176;28;20190;-64